sensor_id;sensor_type;location;lat;lon;timestamp;pressure;altitude;pressure_sealevel;temperature;humidity
12195;BME280;27023;42.680;23.132;2022-10-16T00:02:02;92733.84;;;7.42;100.00
12195;BME280;27023;42.680;23.132;2022-10-16T00:04:29;92734.75;;;7.38;100.00
12195;BME280;27023;42.680;23.132;2022-10-16T00:06:55;92737.38;;;7.38;100.00
12195;BME280;27023;42.680;23.132;2022-10-16T00:09:22;92745.41;;;7.41;100.00
12195;BME280;27023;42.680;23.132;2022-10-16T00:11:50;92750.66;;;7.32;100.00
12195;BME280;27023;42.680;23.132;2022-10-16T00:14:17;92748.03;;;7.41;100.00
12195;BME280;27023;42.680;23.132;2022-10-16T00:16:44;92742.47;;;7.34;100.00
12195;BME280;27023;42.680;23.132;2022-10-16T00:19:11;92751.28;;;7.29;100.00
12195;BME280;27023;42.680;23.132;2022-10-16T00:21:38;92750.50;;;7.29;100.00
12195;BME280;27023;42.680;23.132;2022-10-16T00:24:06;92750.50;;;7.29;100.00
12195;BME280;27023;42.680;23.132;2022-10-16T00:26:35;92752.34;;;7.28;100.00
12195;BME280;27023;42.680;23.132;2022-10-16T00:29:04;92752.97;;;7.17;100.00
12195;BME280;27023;42.680;23.132;2022-10-16T00:31:31;92755.91;;;7.24;100.00
12195;BME280;27023;42.680;23.132;2022-10-16T00:33:58;92757.75;;;7.23;100.00
12195;BME280;27023;42.680;23.132;2022-10-16T00:36:26;92752.50;;;7.23;100.00
12195;BME280;27023;42.680;23.132;2022-10-16T00:38:53;92756.66;;;7.24;100.00
12195;BME280;27023;42.680;23.132;2022-10-16T00:41:21;92750.81;;;7.19;100.00
12195;BME280;27023;42.680;23.132;2022-10-16T00:43:50;92752.19;;;7.16;100.00
12195;BME280;27023;42.680;23.132;2022-10-16T00:46:20;92746.34;;;7.19;100.00
12195;BME280;27023;42.680;23.132;2022-10-16T00:48:51;92748.66;;;7.12;100.00
12195;BME280;27023;42.680;23.132;2022-10-16T00:51:20;92751.72;;;7.23;100.00
12195;BME280;27023;42.680;23.132;2022-10-16T00:53:49;92749.41;;;7.21;100.00
12195;BME280;27023;42.680;23.132;2022-10-16T00:56:16;92749.09;;;7.14;100.00
12195;BME280;27023;42.680;23.132;2022-10-16T00:58:43;92747.88;;;7.20;100.00
12195;BME280;27023;42.680;23.132;2022-10-16T01:01:10;92743.56;;;7.24;100.00
12195;BME280;27023;42.680;23.132;2022-10-16T01:03:38;92750.97;;;7.22;100.00
12195;BME280;27023;42.680;23.132;2022-10-16T01:06:18;92746.34;;;7.19;100.00
12195;BME280;27023;42.680;23.132;2022-10-16T01:08:55;92749.72;;;7.20;100.00
12195;BME280;27023;42.680;23.132;2022-10-16T01:11:27;92754.19;;;7.11;100.00
12195;BME280;27023;42.680;23.132;2022-10-16T01:14:00;92753.72;;;7.17;100.00
12195;BME280;27023;42.680;23.132;2022-10-16T01:16:34;92754.97;;;7.11;100.00
12195;BME280;27023;42.680;23.132;2022-10-16T01:19:10;92757.28;;;7.04;100.00
12195;BME280;27023;42.680;23.132;2022-10-16T01:21:41;92752.34;;;7.03;100.00
12195;BME280;27023;42.680;23.132;2022-10-16T01:24:17;92745.56;;;7.01;100.00
12195;BME280;27023;42.680;23.132;2022-10-16T01:27:06;92749.56;;;7.08;100.00
12195;BME280;27023;42.680;23.132;2022-10-16T01:29:37;92735.38;;;7.09;100.00
12195;BME280;27023;42.680;23.132;2022-10-16T01:32:10;92736.16;;;7.09;100.00
12195;BME280;27023;42.680;23.132;2022-10-16T01:34:45;92731.22;;;7.08;100.00
12195;BME280;27023;42.680;23.132;2022-10-16T01:37:16;92734.91;;;6.98;100.00
12195;BME280;27023;42.680;23.132;2022-10-16T01:39:47;92735.38;;;7.09;100.00
12195;BME280;27023;42.680;23.132;2022-10-16T01:42:20;92737.38;;;7.12;100.00
12195;BME280;27023;42.680;23.132;2022-10-16T01:44:49;92744.16;;;7.13;100.00
12195;BME280;27023;42.680;23.132;2022-10-16T01:47:18;92754.97;;;7.20;100.00
12195;BME280;27023;42.680;23.132;2022-10-16T01:49:49;92755.75;;;7.20;100.00
12195;BME280;27023;42.680;23.132;2022-10-16T01:52:19;92758.06;;;7.30;100.00
12195;BME280;27023;42.680;23.132;2022-10-16T01:54:50;92754.66;;;7.39;100.00
12195;BME280;27023;42.680;23.132;2022-10-16T01:57:21;92758.09;;;7.48;100.00
12195;BME280;27023;42.680;23.132;2022-10-16T01:59:52;92759.59;;;7.40;100.00
12195;BME280;27023;42.680;23.132;2022-10-16T02:02:21;92761.31;;;7.36;100.00
12195;BME280;27023;42.680;23.132;2022-10-16T02:04:53;92763.16;;;7.36;100.00
12195;BME280;27023;42.680;23.132;2022-10-16T02:07:22;92760.69;;;7.39;100.00
12195;BME280;27023;42.680;23.132;2022-10-16T02:09:49;92761.59;;;7.34;100.00
12195;BME280;27023;42.680;23.132;2022-10-16T02:12:21;92764.38;;;7.29;100.00
12195;BME280;27023;42.680;23.132;2022-10-16T02:14:50;92765.00;;;7.26;100.00
12195;BME280;27023;42.680;23.132;2022-10-16T02:17:17;92774.41;;;7.27;100.00
12195;BME280;27023;42.680;23.132;2022-10-16T02:19:46;92762.22;;;7.06;100.00
12195;BME280;27023;42.680;23.132;2022-10-16T02:22:17;92774.72;;;7.17;100.00
12195;BME280;27023;42.680;23.132;2022-10-16T02:24:51;92773.47;;;7.23;100.00
12195;BME280;27023;42.680;23.132;2022-10-16T02:27:25;92777.50;;;7.21;100.00
12195;BME280;27023;42.680;23.132;2022-10-16T02:29:57;92767.31;;;7.19;100.00
12195;BME280;27023;42.680;23.132;2022-10-16T02:32:30;92775.03;;;7.33;100.00
12195;BME280;27023;42.680;23.132;2022-10-16T02:34:59;92773.47;;;7.23;100.00
12195;BME280;27023;42.680;23.132;2022-10-16T02:37:27;92778.25;;;7.21;100.00
12195;BME280;27023;42.680;23.132;2022-10-16T02:39:56;92769.00;;;7.24;100.00
12195;BME280;27023;42.680;23.132;2022-10-16T02:42:29;92780.13;;;7.38;100.00
12195;BME280;27023;42.680;23.132;2022-10-16T02:44:59;92778.28;;;7.47;100.00
12195;BME280;27023;42.680;23.132;2022-10-16T02:47:25;92788.00;;;7.47;100.00
12195;BME280;27023;42.680;23.132;2022-10-16T02:49:52;92794.19;;;7.59;100.00
12195;BME280;27023;42.680;23.132;2022-10-16T02:52:19;92789.56;;;7.48;100.00
12195;BME280;27023;42.680;23.132;2022-10-16T02:54:46;92792.31;;;7.43;100.00
12195;BME280;27023;42.680;23.132;2022-10-16T02:57:12;92793.06;;;7.34;100.00
12195;BME280;27023;42.680;23.132;2022-10-16T02:59:40;92780.28;;;7.42;100.00
12195;BME280;27023;42.680;23.132;2022-10-16T03:02:08;92786.91;;;7.39;100.00
12195;BME280;27023;42.680;23.132;2022-10-16T03:04:35;92790.75;;;7.42;100.00
12195;BME280;27023;42.680;23.132;2022-10-16T03:07:02;92791.41;;;7.64;100.00
12195;BME280;27023;42.680;23.132;2022-10-16T03:09:29;92792.50;;;7.55;100.00
12195;BME280;27023;42.680;23.132;2022-10-16T03:11:56;92785.22;;;7.34;100.00
12195;BME280;27023;42.680;23.132;2022-10-16T03:14:22;92790.75;;;7.42;100.00
12195;BME280;27023;42.680;23.132;2022-10-16T03:16:51;92791.22;;;7.35;100.00
12195;BME280;27023;42.680;23.132;2022-10-16T03:19:18;92791.97;;;7.18;100.00
12195;BME280;27023;42.680;23.132;2022-10-16T03:21:45;92799.22;;;7.13;100.00
12195;BME280;27023;42.680;23.132;2022-10-16T03:24:11;92798.75;;;7.02;100.00
12195;BME280;27023;42.680;23.132;2022-10-16T03:26:38;92805.22;;;6.96;100.00
12195;BME280;27023;42.680;23.132;2022-10-16T03:29:05;92808.47;;;7.10;100.00
12195;BME280;27023;42.680;23.132;2022-10-16T03:31:32;92809.09;;;7.16;100.00
12195;BME280;27023;42.680;23.132;2022-10-16T03:34:00;92813.97;;;6.91;100.00
12195;BME280;27023;42.680;23.132;2022-10-16T03:36:27;92815.97;;;6.86;100.00
12195;BME280;27023;42.680;23.132;2022-10-16T03:38:53;92803.66;;;6.95;100.00
12195;BME280;27023;42.680;23.132;2022-10-16T03:41:20;92803.00;;;6.81;100.00
12195;BME280;27023;42.680;23.132;2022-10-16T03:43:47;92800.88;;;6.91;100.00
12195;BME280;27023;42.680;23.132;2022-10-16T03:46:13;92806.94;;;7.09;100.00
12195;BME280;27023;42.680;23.132;2022-10-16T03:48:40;92796.28;;;7.14;100.00
12195;BME280;27023;42.680;23.132;2022-10-16T03:51:08;92806.47;;;7.07;100.00
12195;BME280;27023;42.680;23.132;2022-10-16T03:53:35;92809.38;;;6.97;100.00
12195;BME280;27023;42.680;23.132;2022-10-16T03:56:02;92805.22;;;6.96;100.00
12195;BME280;27023;42.680;23.132;2022-10-16T03:58:28;92800.25;;;6.86;100.00
12195;BME280;27023;42.680;23.132;2022-10-16T04:00:55;92801.78;;;6.87;100.00
12195;BME280;27023;42.680;23.132;2022-10-16T04:03:22;92798.09;;;6.88;100.00
12195;BME280;27023;42.680;23.132;2022-10-16T04:05:49;92803.81;;;6.90;100.00
12195;BME280;27023;42.680;23.132;2022-10-16T04:08:17;92795.75;;;6.69;100.00
12195;BME280;27023;42.680;23.132;2022-10-16T04:10:44;92797.47;;;6.43;100.00
12195;BME280;27023;42.680;23.132;2022-10-16T04:13:11;92795.38;;;6.62;100.00
12195;BME280;27023;42.680;23.132;2022-10-16T04:15:39;92797.09;;;6.66;100.00
12195;BME280;27023;42.680;23.132;2022-10-16T04:18:06;92798.56;;;6.50;100.00
12195;BME280;27023;42.680;23.132;2022-10-16T04:20:33;92800.72;;;6.48;100.00
12195;BME280;27023;42.680;23.132;2022-10-16T04:23:00;92804.59;;;6.51;100.00
12195;BME280;27023;42.680;23.132;2022-10-16T04:25:28;92804.06;;;6.40;100.00
12195;BME280;27023;42.680;23.132;2022-10-16T04:27:55;92796.69;;;6.42;100.00
12195;BME280;27023;42.680;23.132;2022-10-16T04:30:22;92807.16;;;6.42;100.00
12195;BME280;27023;42.680;23.132;2022-10-16T04:32:50;92810.25;;;6.44;100.00
12195;BME280;27023;42.680;23.132;2022-10-16T04:35:17;92801.31;;;6.45;100.00
12195;BME280;27023;42.680;23.132;2022-10-16T04:37:44;92811.97;;;6.49;100.00
12195;BME280;27023;42.680;23.132;2022-10-16T04:40:11;92811.38;;;6.52;100.00
12195;BME280;27023;42.680;23.132;2022-10-16T04:42:39;92806.28;;;6.55;100.00
12195;BME280;27023;42.680;23.132;2022-10-16T04:45:07;92806.13;;;6.52;100.00
12195;BME280;27023;42.680;23.132;2022-10-16T04:47:33;92811.22;;;6.57;100.00
12195;BME280;27023;42.680;23.132;2022-10-16T04:50:00;92823.53;;;6.48;100.00
12195;BME280;27023;42.680;23.132;2022-10-16T04:52:27;92816.69;;;6.38;100.00
12195;BME280;27023;42.680;23.132;2022-10-16T04:54:54;92820.22;;;6.33;100.00
12195;BME280;27023;42.680;23.132;2022-10-16T04:57:25;92829.06;;;6.46;100.00
12195;BME280;27023;42.680;23.132;2022-10-16T04:59:53;92831.97;;;6.45;100.00
12195;BME280;27023;42.680;23.132;2022-10-16T05:02:20;92830.44;;;6.44;100.00
12195;BME280;27023;42.680;23.132;2022-10-16T05:04:47;92831.06;;;6.49;100.00
12195;BME280;27023;42.680;23.132;2022-10-16T05:07:13;92831.53;;;6.51;100.00
12195;BME280;27023;42.680;23.132;2022-10-16T05:09:40;92827.88;;;6.61;100.00
12195;BME280;27023;42.680;23.132;2022-10-16T05:12:07;92832.50;;;6.55;100.00
12195;BME280;27023;42.680;23.132;2022-10-16T05:14:34;92826.47;;;6.55;100.00
12195;BME280;27023;42.680;23.132;2022-10-16T05:17:02;92828.66;;;6.61;100.00
12195;BME280;27023;42.680;23.132;2022-10-16T05:19:28;92833.06;;;6.75;100.00
12195;BME280;27023;42.680;23.132;2022-10-16T05:21:55;92831.81;;;6.72;100.00
12195;BME280;27023;42.680;23.132;2022-10-16T05:24:22;92838.59;;;6.73;100.00
12195;BME280;27023;42.680;23.132;2022-10-16T05:26:49;92835.66;;;6.75;100.00
12195;BME280;27023;42.680;23.132;2022-10-16T05:29:17;92825.59;;;6.68;100.00
12195;BME280;27023;42.680;23.132;2022-10-16T05:31:43;92849.25;;;6.77;100.00
12195;BME280;27023;42.680;23.132;2022-10-16T05:34:11;92850.78;;;6.78;100.00
12195;BME280;27023;42.680;23.132;2022-10-16T05:36:38;92861.91;;;6.83;100.00
12195;BME280;27023;42.680;23.132;2022-10-16T05:39:05;92858.38;;;6.88;100.00
12195;BME280;27023;42.680;23.132;2022-10-16T05:41:31;92856.53;;;6.88;100.00
12195;BME280;27023;42.680;23.132;2022-10-16T05:43:58;92858.06;;;6.89;100.00
12195;BME280;27023;42.680;23.132;2022-10-16T05:46:25;92858.97;;;6.85;100.00
12195;BME280;27023;42.680;23.132;2022-10-16T05:48:52;92861.59;;;6.85;100.00
12195;BME280;27023;42.680;23.132;2022-10-16T05:51:20;92866.38;;;6.83;100.00
12195;BME280;27023;42.680;23.132;2022-10-16T05:53:47;92860.06;;;6.84;100.00
12195;BME280;27023;42.680;23.132;2022-10-16T05:56:14;92870.88;;;6.91;100.00
12195;BME280;27023;42.680;23.132;2022-10-16T05:58:41;92865.97;;;6.98;100.00
12195;BME280;27023;42.680;23.132;2022-10-16T06:01:11;92876.78;;;7.05;100.00
12195;BME280;27023;42.680;23.132;2022-10-16T06:03:38;92885.41;;;7.06;100.00
12195;BME280;27023;42.680;23.132;2022-10-16T06:06:08;92876.44;;;6.98;100.00
12195;BME280;27023;42.680;23.132;2022-10-16T06:08:37;92885.56;;;7.09;100.00
12195;BME280;27023;42.680;23.132;2022-10-16T06:11:06;92883.13;;;7.13;100.00
12195;BME280;27023;42.680;23.132;2022-10-16T06:13:33;92897.47;;;7.15;100.00
12195;BME280;27023;42.680;23.132;2022-10-16T06:16:01;92889.47;;;7.20;100.00
12195;BME280;27023;42.680;23.132;2022-10-16T06:18:28;92894.38;;;7.13;100.00
12195;BME280;27023;42.680;23.132;2022-10-16T06:20:56;92903.19;;;7.26;100.00
12195;BME280;27023;42.680;23.132;2022-10-16T06:23:22;92895.34;;;7.34;100.00
12195;BME280;27023;42.680;23.132;2022-10-16T06:25:51;92908.38;;;7.48;100.00
12195;BME280;27023;42.680;23.132;2022-10-16T06:28:17;92902.81;;;7.50;100.00
12195;BME280;27023;42.680;23.132;2022-10-16T06:30:44;92910.06;;;7.53;100.00
12195;BME280;27023;42.680;23.132;2022-10-16T06:33:12;92912.69;;;7.53;100.00
12195;BME280;27023;42.680;23.132;2022-10-16T06:35:38;92912.06;;;7.47;100.00
12195;BME280;27023;42.680;23.132;2022-10-16T06:38:05;92920.72;;;7.48;100.00
12195;BME280;27023;42.680;23.132;2022-10-16T06:40:32;92921.66;;;7.52;100.00
12195;BME280;27023;42.680;23.132;2022-10-16T06:43:00;92921.03;;;7.55;100.00
12195;BME280;27023;42.680;23.132;2022-10-16T06:45:27;92930.63;;;7.68;100.00
12195;BME280;27023;42.680;23.132;2022-10-16T06:47:54;92924.16;;;7.65;100.00
12195;BME280;27023;42.680;23.132;2022-10-16T06:50:21;92920.75;;;7.65;100.00
12195;BME280;27023;42.680;23.132;2022-10-16T06:52:49;92926.00;;;7.65;100.00
12195;BME280;27023;42.680;23.132;2022-10-16T06:55:15;92934.19;;;7.72;100.00
12195;BME280;27023;42.680;23.132;2022-10-16T06:57:42;92944.69;;;7.81;100.00
12195;BME280;27023;42.680;23.132;2022-10-16T07:00:11;92939.59;;;7.93;100.00
12195;BME280;27023;42.680;23.132;2022-10-16T07:02:38;92944.25;;;7.87;100.00
12195;BME280;27023;42.680;23.132;2022-10-16T07:05:05;92942.41;;;8.14;100.00
12195;BME280;27023;42.680;23.132;2022-10-16T07:10:13;92952.59;;;8.07;100.00
12195;BME280;27023;42.680;23.132;2022-10-16T07:12:40;92954.91;;;8.08;100.00
12195;BME280;27023;42.680;23.132;2022-10-16T07:15:08;92957.53;;;8.17;100.00
12195;BME280;27023;42.680;23.132;2022-10-16T07:17:36;92959.56;;;8.20;100.00
12195;BME280;27023;42.680;23.132;2022-10-16T07:20:03;92964.06;;;8.28;100.00
12195;BME280;27023;42.680;23.132;2022-10-16T07:22:30;92961.13;;;8.29;100.00
12195;BME280;27023;42.680;23.132;2022-10-16T07:24:56;92962.22;;;8.37;100.00
12195;BME280;27023;42.680;23.132;2022-10-16T07:27:23;92964.69;;;8.42;100.00
12195;BME280;27023;42.680;23.132;2022-10-16T07:29:50;92969.16;;;8.50;100.00
12195;BME280;27023;42.680;23.132;2022-10-16T07:32:16;92959.28;;;8.56;100.00
12195;BME280;27023;42.680;23.132;2022-10-16T07:34:45;92960.03;;;8.56;100.00
12195;BME280;27023;42.680;23.132;2022-10-16T07:37:11;92959.50;;;8.89;100.00
12195;BME280;27023;42.680;23.132;2022-10-16T07:39:38;92968.03;;;8.95;100.00
12195;BME280;27023;42.680;23.132;2022-10-16T07:42:05;92976.72;;;9.33;100.00
12195;BME280;27023;42.680;23.132;2022-10-16T07:44:32;92980.41;;;9.41;100.00
12195;BME280;27023;42.680;23.132;2022-10-16T07:46:59;92976.22;;;9.40;100.00
12195;BME280;27023;42.680;23.132;2022-10-16T07:49:26;92979.28;;;9.12;100.00
12195;BME280;27023;42.680;23.132;2022-10-16T07:51:54;92977.56;;;9.16;100.00
12195;BME280;27023;42.680;23.132;2022-10-16T07:54:21;92986.06;;;9.22;100.00
12195;BME280;27023;42.680;23.132;2022-10-16T07:56:47;92988.69;;;9.22;100.00
12195;BME280;27023;42.680;23.132;2022-10-16T07:59:14;92985.63;;;9.11;100.00
12195;BME280;27023;42.680;23.132;2022-10-16T08:01:41;92994.44;;;9.15;100.00
12195;BME280;27023;42.680;23.132;2022-10-16T08:04:09;92987.81;;;9.47;100.00
12195;BME280;27023;42.680;23.132;2022-10-16T08:06:37;92992.22;;;9.73;100.00
12195;BME280;27023;42.680;23.132;2022-10-16T08:09:06;92993.44;;;9.75;100.00
12195;BME280;27023;42.680;23.132;2022-10-16T08:11:33;92995.19;;;9.92;100.00
12195;BME280;27023;42.680;23.132;2022-10-16T08:14:00;92990.38;;;9.94;100.00
12195;BME280;27023;42.680;23.132;2022-10-16T08:16:27;92995.47;;;9.99;100.00
12195;BME280;27023;42.680;23.132;2022-10-16T08:18:54;92989.28;;;9.95;100.00
12195;BME280;27023;42.680;23.132;2022-10-16T08:21:22;92998.50;;;10.10;100.00
12195;BME280;27023;42.680;23.132;2022-10-16T08:23:49;92993.94;;;10.19;100.00
12195;BME280;27023;42.680;23.132;2022-10-16T08:26:17;92993.34;;;9.93;100.00
12195;BME280;27023;42.680;23.132;2022-10-16T08:28:44;92996.75;;;10.23;100.00
12195;BME280;27023;42.680;23.132;2022-10-16T08:31:13;93002.50;;;10.16;100.00
12195;BME280;27023;42.680;23.132;2022-10-16T08:33:41;92994.13;;;10.14;100.00
12195;BME280;27023;42.680;23.132;2022-10-16T08:36:09;93001.09;;;10.39;100.00
12195;BME280;27023;42.680;23.132;2022-10-16T08:38:37;93005.50;;;10.56;100.00
12195;BME280;27023;42.680;23.132;2022-10-16T08:41:19;93002.28;;;10.71;100.00
12195;BME280;27023;42.680;23.132;2022-10-16T08:46:49;93003.13;;;10.63;100.00
12195;BME280;27023;42.680;23.132;2022-10-16T08:49:19;93005.00;;;10.42;100.00
12195;BME280;27023;42.680;23.132;2022-10-16T08:51:46;93008.28;;;10.60;100.00
12195;BME280;27023;42.680;23.132;2022-10-16T08:54:22;93010.50;;;10.70;100.00
12195;BME280;27023;42.680;23.132;2022-10-16T08:56:54;93018.34;;;10.78;100.00
12195;BME280;27023;42.680;23.132;2022-10-16T08:59:21;93019.00;;;10.75;100.00
12195;BME280;27023;42.680;23.132;2022-10-16T09:01:49;93018.59;;;10.86;100.00
12195;BME280;27023;42.680;23.132;2022-10-16T09:04:52;93016.25;;;11.05;100.00
12195;BME280;27023;42.680;23.132;2022-10-16T09:07:30;93020.47;;;11.18;100.00
12195;BME280;27023;42.680;23.132;2022-10-16T09:10:20;93018.63;;;11.19;100.00
12195;BME280;27023;42.680;23.132;2022-10-16T09:12:57;93020.22;;;11.11;100.00
12195;BME280;27023;42.680;23.132;2022-10-16T09:15:33;93023.28;;;11.34;100.00
12195;BME280;27023;42.680;23.132;2022-10-16T09:18:06;93019.22;;;11.49;100.00
12195;BME280;27023;42.680;23.132;2022-10-16T09:20:51;93012.75;;;11.58;100.00
12195;BME280;27023;42.680;23.132;2022-10-16T09:23:24;93014.34;;;11.26;100.00
12195;BME280;27023;42.680;23.132;2022-10-16T09:25:52;93010.75;;;11.43;100.00
12195;BME280;27023;42.680;23.132;2022-10-16T09:28:20;93018.00;;;11.46;100.00
12195;BME280;27023;42.680;23.132;2022-10-16T09:30:48;93014.16;;;11.56;100.00
12195;BME280;27023;42.680;23.132;2022-10-16T09:33:16;93024.19;;;11.62;100.00
12195;BME280;27023;42.680;23.132;2022-10-16T09:35:44;93028.22;;;11.93;100.00
12195;BME280;27023;42.680;23.132;2022-10-16T09:38:23;93027.75;;;11.78;100.00
12195;BME280;27023;42.680;23.132;2022-10-16T09:40:50;93024.38;;;12.02;100.00
12195;BME280;27023;42.680;23.132;2022-10-16T09:43:23;93027.34;;;12.01;100.00
12195;BME280;27023;42.680;23.132;2022-10-16T09:45:54;93018.00;;;11.91;100.00
12195;BME280;27023;42.680;23.132;2022-10-16T09:48:22;93025.13;;;12.03;100.00
12195;BME280;27023;42.680;23.132;2022-10-16T09:50:56;93020.00;;;11.73;100.00
12195;BME280;27023;42.680;23.132;2022-10-16T09:53:22;93017.75;;;11.84;100.00
12195;BME280;27023;42.680;23.132;2022-10-16T09:55:49;93017.22;;;12.03;100.00
12195;BME280;27023;42.680;23.132;2022-10-16T09:58:17;93009.41;;;11.94;100.00
12195;BME280;27023;42.680;23.132;2022-10-16T10:00:50;93010.59;;;11.85;100.00
12195;BME280;27023;42.680;23.132;2022-10-16T10:03:35;93017.00;;;11.96;100.00
12195;BME280;27023;42.680;23.132;2022-10-16T10:06:13;93009.34;;;12.31;100.00
12195;BME280;27023;42.680;23.132;2022-10-16T10:08:53;93013.81;;;12.55;100.00
12195;BME280;27023;42.680;23.132;2022-10-16T10:11:42;93020.41;;;12.73;98.84
12195;BME280;27023;42.680;23.132;2022-10-16T10:14:17;93017.09;;;12.76;92.26
12195;BME280;27023;42.680;23.132;2022-10-16T10:16:47;93014.50;;;12.92;84.24
12195;BME280;27023;42.680;23.132;2022-10-16T10:19:16;93015.13;;;13.01;80.98
12195;BME280;27023;42.680;23.132;2022-10-16T10:21:43;93011.22;;;13.11;81.08
12195;BME280;27023;42.680;23.132;2022-10-16T10:24:11;93015.06;;;12.85;84.95
12195;BME280;27023;42.680;23.132;2022-10-16T10:26:38;93000.78;;;12.74;85.10
12195;BME280;27023;42.680;23.132;2022-10-16T10:29:14;93004.38;;;13.10;79.59
12195;BME280;27023;42.680;23.132;2022-10-16T10:31:52;93004.25;;;12.90;83.49
12195;BME280;27023;42.680;23.132;2022-10-16T10:34:35;92995.72;;;12.97;82.29
12195;BME280;27023;42.680;23.132;2022-10-16T10:37:15;92989.09;;;13.03;82.86
12195;BME280;27023;42.680;23.132;2022-10-16T10:39:53;92983.94;;;12.94;87.11
12195;BME280;27023;42.680;23.132;2022-10-16T10:42:27;92986.91;;;13.21;80.55
12195;BME280;27023;42.680;23.132;2022-10-16T10:45:22;92988.81;;;13.20;80.81
12195;BME280;27023;42.680;23.132;2022-10-16T10:48:00;92978.13;;;13.17;88.90
12195;BME280;27023;42.680;23.132;2022-10-16T10:50:35;92986.84;;;13.33;85.29
12195;BME280;27023;42.680;23.132;2022-10-16T10:53:11;92984.47;;;13.91;80.17
12195;BME280;27023;42.680;23.132;2022-10-16T10:55:46;92985.59;;;13.74;81.76
12195;BME280;27023;42.680;23.132;2022-10-16T10:58:39;92976.84;;;14.05;73.75
12195;BME280;27023;42.680;23.132;2022-10-16T11:01:11;92978.81;;;14.24;75.73
12195;BME280;27023;42.680;23.132;2022-10-16T11:04:04;92976.09;;;13.89;78.78
12195;BME280;27023;42.680;23.132;2022-10-16T11:06:36;92977.47;;;13.98;73.74
12195;BME280;27023;42.680;23.132;2022-10-16T11:09:10;92969.16;;;14.00;70.57
12195;BME280;27023;42.680;23.132;2022-10-16T11:11:42;92975.66;;;14.18;75.27
12195;BME280;27023;42.680;23.132;2022-10-16T11:14:15;92973.91;;;14.26;70.01
12195;BME280;27023;42.680;23.132;2022-10-16T11:16:47;92976.66;;;14.29;67.73
12195;BME280;27023;42.680;23.132;2022-10-16T11:19:28;92964.66;;;13.85;71.71
12195;BME280;27023;42.680;23.132;2022-10-16T11:24:37;92962.13;;;14.23;69.39
12195;BME280;27023;42.680;23.132;2022-10-16T11:27:11;92964.72;;;14.04;71.84
12195;BME280;27023;42.680;23.132;2022-10-16T11:29:49;92960.88;;;14.02;70.79
12195;BME280;27023;42.680;23.132;2022-10-16T11:32:23;92957.59;;;14.08;73.75
12195;BME280;27023;42.680;23.132;2022-10-16T11:34:57;92963.25;;;14.22;76.81
12195;BME280;27023;42.680;23.132;2022-10-16T11:37:32;92963.44;;;13.98;79.76
12195;BME280;27023;42.680;23.132;2022-10-16T11:40:15;92960.38;;;13.96;81.09
12195;BME280;27023;42.680;23.132;2022-10-16T11:42:48;92966.44;;;14.12;81.14
12195;BME280;27023;42.680;23.132;2022-10-16T11:45:26;92966.84;;;13.98;77.62
12195;BME280;27023;42.680;23.132;2022-10-16T11:48:00;92965.22;;;14.10;77.17
12195;BME280;27023;42.680;23.132;2022-10-16T11:50:34;92962.22;;;14.11;74.22
12195;BME280;27023;42.680;23.132;2022-10-16T11:53:10;92957.97;;;14.42;72.12
12195;BME280;27023;42.680;23.132;2022-10-16T11:55:41;92957.47;;;14.36;72.42
12195;BME280;27023;42.680;23.132;2022-10-16T11:58:15;92956.31;;;14.53;71.00
12195;BME280;27023;42.680;23.132;2022-10-16T12:00:47;92966.66;;;14.77;67.00
12195;BME280;27023;42.680;23.132;2022-10-16T12:03:22;92960.59;;;14.96;64.04
12195;BME280;27023;42.680;23.132;2022-10-16T12:06:06;92952.91;;;14.91;62.17
12195;BME280;27023;42.680;23.132;2022-10-16T12:08:38;92962.41;;;14.73;64.35
12195;BME280;27023;42.680;23.132;2022-10-16T12:11:19;92963.16;;;14.73;64.15
12195;BME280;27023;42.680;23.132;2022-10-16T12:13:47;92959.78;;;14.38;69.16
12195;BME280;27023;42.680;23.132;2022-10-16T12:16:22;92958.41;;;14.44;73.77
12195;BME280;27023;42.680;23.132;2022-10-16T12:18:49;92957.94;;;14.57;67.32
12195;BME280;27023;42.680;23.132;2022-10-16T12:21:31;92956.41;;;14.41;74.92
12195;BME280;27023;42.680;23.132;2022-10-16T12:23:58;92953.41;;;14.23;81.90
12195;BME280;27023;42.680;23.132;2022-10-16T12:26:28;92957.72;;;13.96;79.62
12195;BME280;27023;42.680;23.132;2022-10-16T12:28:56;92957.38;;;14.13;79.50
12195;BME280;27023;42.680;23.132;2022-10-16T12:31:37;92967.63;;;14.15;77.41
12195;BME280;27023;42.680;23.132;2022-10-16T12:34:14;92955.28;;;14.22;66.49
12195;BME280;27023;42.680;23.132;2022-10-16T12:36:48;92957.00;;;14.50;66.53
12195;BME280;27023;42.680;23.132;2022-10-16T12:39:27;92958.81;;;14.46;74.05
12195;BME280;27023;42.680;23.132;2022-10-16T12:42:20;92954.59;;;14.10;77.81
12195;BME280;27023;42.680;23.132;2022-10-16T12:44:47;92958.28;;;14.21;78.66
12195;BME280;27023;42.680;23.132;2022-10-16T12:47:20;92955.69;;;14.24;79.18
12195;BME280;27023;42.680;23.132;2022-10-16T12:49:49;92957.38;;;14.48;71.31
12195;BME280;27023;42.680;23.132;2022-10-16T12:52:28;92953.91;;;14.28;72.71
12195;BME280;27023;42.680;23.132;2022-10-16T12:54:58;92958.69;;;14.23;81.14
12195;BME280;27023;42.680;23.132;2022-10-16T12:57:40;92967.09;;;14.25;78.61
12195;BME280;27023;42.680;23.132;2022-10-16T13:00:17;92964.44;;;14.09;78.29
12195;BME280;27023;42.680;23.132;2022-10-16T13:03:00;92969.59;;;14.02;79.62
12195;BME280;27023;42.680;23.132;2022-10-16T13:05:38;92966.66;;;14.07;82.15
12195;BME280;27023;42.680;23.132;2022-10-16T13:08:29;92966.66;;;14.07;79.36
12195;BME280;27023;42.680;23.132;2022-10-16T13:11:04;92967.13;;;13.93;82.32
12195;BME280;27023;42.680;23.132;2022-10-16T13:13:46;92967.03;;;13.90;84.66